Time;durP1;ratioP1;P1;durP2;ratioP2;P2;SDS_P1;SDS_P2;PMS_P1;PMS_P2;Temp;Humidity;BMP_temperature;BMP_pressure;BME280_temperature;BME280_humidity;BME280_pressure;Samples;Min_cycle;Max_cycle;Signal;HPM_P1;HPM_P2
2021/05/18 00:00:20;;;;;;;4.70;4.27;;;;;;;9.86;100.00;101148.56;1881780;76;26205;-77
2021/05/18 00:02:51;;;;;;;7.57;4.93;;;;;;;9.90;100.00;101151.07;1881770;76;26218;-78
2021/05/18 00:05:24;;;;;;;5.07;4.23;;;;;;;10.05;100.00;101157.23;1882054;76;26190;-78
2021/05/18 00:07:57;;;;;;;5.17;4.60;;;;;;;9.92;100.00;101154.42;1881993;76;26187;-78
2021/05/18 00:13:20;;;;;;;4.47;4.07;;;;;;;10.00;100.00;101144.72;1883171;76;26240;-78
2021/05/18 00:15:54;;;;;;;7.67;4.83;;;;;;;9.86;100.00;101156.05;1882317;76;26357;-79
2021/05/18 00:18:24;;;;;;;5.70;4.60;;;;;;;9.68;100.00;101156.54;1882863;76;26649;-79
2021/05/18 00:20:55;;;;;;;6.03;4.27;;;;;;;9.63;100.00;101152.39;1882808;76;26297;-78
2021/05/18 00:23:26;;;;;;;6.17;5.03;;;;;;;9.75;100.00;101159.91;1882510;76;26226;-78
2021/05/18 00:25:55;;;;;;;6.60;5.00;;;;;;;9.82;100.00;101151.61;1881654;76;26743;-78
2021/05/18 00:28:25;;;;;;;8.03;5.10;;;;;;;9.84;100.00;101156.31;1881820;76;26693;-78
2021/05/18 00:30:55;;;;;;;6.73;5.07;;;;;;;9.77;100.00;101152.97;1881827;76;26241;-77
2021/05/18 00:33:25;;;;;;;7.23;5.30;;;;;;;9.76;100.00;101156.02;1881762;76;26806;-78
2021/05/18 00:35:55;;;;;;;5.83;5.23;;;;;;;9.87;100.00;101157.18;1881789;76;26680;-78
2021/05/18 00:38:25;;;;;;;6.13;4.63;;;;;;;9.85;100.00;101157.98;1881756;76;26715;-78
2021/05/18 00:40:55;;;;;;;5.93;5.30;;;;;;;9.84;100.00;101157.70;1881754;76;26319;-77
2021/05/18 00:43:25;;;;;;;8.10;5.80;;;;;;;9.86;100.00;101158.28;1881742;76;26229;-78
2021/05/18 00:45:57;;;;;;;7.50;5.93;;;;;;;9.85;100.00;101159.92;1881739;76;26240;-78
2021/05/18 00:48:27;;;;;;;6.10;5.50;;;;;;;9.82;100.00;101166.87;1881713;76;26267;-78
2021/05/18 00:50:59;;;;;;;7.93;6.00;;;;;;;9.85;100.00;101169.64;1881744;76;26198;-78
2021/05/18 00:53:30;;;;;;;8.17;6.50;;;;;;;9.90;100.00;101171.88;1881842;76;26268;-78
2021/05/18 00:56:04;;;;;;;7.73;5.93;;;;;;;10.00;100.00;101175.25;1881807;76;26197;-78
2021/05/18 00:58:37;;;;;;;8.33;5.80;;;;;;;9.90;100.00;101171.88;1849542;77;26275;-79
2021/05/18 01:01:11;;;;;;;8.97;5.77;;;;;;;9.94;100.00;101177.72;1881745;76;26220;-78
2021/05/18 01:03:41;;;;;;;7.10;5.47;;;;;;;9.80;100.00;101175.16;1881689;76;26661;-78
2021/05/18 01:06:20;;;;;;;7.20;5.40;;;;;;;9.76;100.00;101177.66;1881871;76;26767;-77
2021/05/18 01:08:52;;;;;;;6.50;5.57;;;;;;;9.77;100.00;101184.88;1881884;76;26190;-78
2021/05/18 01:11:25;;;;;;;6.77;5.20;;;;;;;9.84;100.00;101183.25;1881716;76;26198;-78
2021/05/18 01:14:00;;;;;;;8.37;5.40;;;;;;;9.95;100.00;101184.39;1881687;76;26746;-79
2021/05/18 01:16:33;;;;;;;6.23;4.73;;;;;;;9.91;100.00;101193.53;1881874;76;26649;-78
2021/05/18 01:19:04;;;;;;;7.73;4.60;;;;;;;9.90;100.00;101196.86;1881845;76;26272;-78
2021/05/18 01:21:35;;;;;;;6.73;4.27;;;;;;;9.97;100.00;101187.71;1881963;76;26190;-78
2021/05/18 01:24:07;;;;;;;7.30;4.20;;;;;;;9.91;100.00;101193.53;1881717;76;26271;-77
2021/05/18 01:26:39;;;;;;;7.63;5.03;;;;;;;9.94;100.00;101200.75;1881805;76;26241;-77
2021/05/18 01:29:10;;;;;;;6.50;4.30;;;;;;;9.93;100.00;101199.63;1881760;76;26186;-78
2021/05/18 01:31:42;;;;;;;6.27;4.50;;;;;;;10.00;100.00;101201.61;1881677;76;26201;-79
2021/05/18 01:34:12;;;;;;;4.60;4.20;;;;;;;9.95;100.00;101201.04;1881747;76;26198;-78
2021/05/18 01:36:43;;;;;;;5.70;3.93;;;;;;;9.93;100.00;101198.23;1881716;76;26182;-78
2021/05/18 01:39:42;;;;;;;6.20;3.77;;;;;;;9.94;100.00;101206.85;1881671;76;26629;-78
2021/05/18 01:44:47;;;;;;;4.77;3.57;;;;;;;9.91;100.00;101209.63;1881873;76;26243;-79
2021/05/18 01:47:17;;;;;;;6.40;4.10;;;;;;;9.84;100.00;101207.64;1881792;76;26194;-79
2021/05/18 01:49:47;;;;;;;4.70;4.03;;;;;;;9.82;100.00;101201.55;1881740;76;26206;-79
2021/05/18 01:52:17;;;;;;;4.83;3.93;;;;;;;9.89;100.00;101204.05;1881851;76;26194;-79
2021/05/18 01:54:49;;;;;;;6.33;3.93;;;;;;;9.76;100.00;101203.17;1881780;76;26193;-79
2021/05/18 01:57:20;;;;;;;4.20;3.80;;;;;;;9.80;100.00;101208.45;1881740;76;26182;-78
2021/05/18 01:59:52;;;;;;;5.77;4.40;;;;;;;9.81;100.00;101210.13;1881774;76;26198;-78
2021/05/18 02:02:23;;;;;;;6.70;3.67;;;;;;;9.85;100.00;101205.70;1881695;76;26224;-78
2021/05/18 02:04:56;;;;;;;4.90;3.77;;;;;;;9.82;100.00;101208.48;1881742;76;26288;-78
2021/05/18 02:07:29;;;;;;;6.93;4.23;;;;;;;9.84;100.00;101209.03;1881694;76;26632;-78
2021/05/18 02:10:00;;;;;;;5.60;4.23;;;;;;;9.80;100.00;101204.30;1881798;76;26293;-78
2021/05/18 02:12:30;;;;;;;5.50;3.60;;;;;;;9.83;100.00;101211.55;1881917;76;26649;-78
2021/05/18 02:15:04;;;;;;;5.07;3.70;;;;;;;9.91;100.00;101207.41;1881744;76;26186;-78
2021/05/18 02:17:35;;;;;;;4.40;4.00;;;;;;;9.93;100.00;101213.50;1880703;76;26279;-78
2021/05/18 02:20:18;;;;;;;4.70;3.77;;;;;;;9.82;100.00;101214.03;1881177;76;26252;-78
2021/05/18 02:25:33;;;;;;;4.40;3.80;;;;;;;9.79;100.00;101228.45;1881749;76;26319;-78
2021/05/18 02:28:04;;;;;;;4.00;3.60;;;;;;;9.80;100.00;101223.16;1881664;76;26186;-77
2021/05/18 02:30:35;;;;;;;5.07;3.50;;;;;;;9.62;100.00;101226.98;1888121;76;26656;-77
2021/05/18 02:33:05;;;;;;;4.93;3.43;;;;;;;9.46;100.00;101227.43;1888134;76;26194;-77
2021/05/18 02:35:35;;;;;;;4.13;3.67;;;;;;;9.53;100.00;101228.88;1886934;76;26284;-77
2021/05/18 02:38:06;;;;;;;5.43;3.83;;;;;;;9.51;100.00;101228.84;1881651;76;26264;-77
2021/05/18 02:40:39;;;;;;;7.30;3.57;;;;;;;9.55;100.00;101225.27;1881929;76;26210;-77
2021/05/18 02:43:10;;;;;;;4.47;3.67;;;;;;;9.45;100.00;101225.78;1882016;76;26219;-77
2021/05/18 02:45:45;;;;;;;5.20;3.50;;;;;;;9.44;100.00;101228.27;1881914;76;26723;-77
2021/05/18 02:50:58;;;;;;;5.87;4.30;;;;;;;9.20;100.00;101229.79;1882271;76;26214;-77
2021/05/18 02:53:29;;;;;;;5.60;3.83;;;;;;;9.14;100.00;101233.06;1881773;76;26201;-77
2021/05/18 02:56:03;;;;;;;8.00;4.13;;;;;;;9.07;100.00;101234.66;1881859;76;26312;-77
2021/05/18 02:58:33;;;;;;;5.57;3.53;;;;;;;9.11;100.00;101231.64;1849337;77;26201;-77
2021/05/18 03:01:03;;;;;;;5.93;4.73;;;;;;;9.21;100.00;101238.36;1881855;76;26194;-77
2021/05/18 03:03:33;;;;;;;5.30;4.40;;;;;;;9.12;100.00;101236.64;1881771;76;26214;-77
2021/05/18 03:06:03;;;;;;;6.23;4.30;;;;;;;9.09;100.00;101242.72;1881789;76;26194;-77
2021/05/18 03:08:37;;;;;;;5.57;4.80;;;;;;;9.03;100.00;101238.23;1881768;76;26270;-77
2021/05/18 03:11:04;;;;;;;5.63;4.63;;;;;;;9.00;100.00;101242.38;1849293;77;26204;-77
2021/05/18 03:13:34;;;;;;;5.23;4.10;;;;;;;8.92;100.00;101241.48;1881825;76;26196;-78
2021/05/18 03:16:06;;;;;;;5.27;4.30;;;;;;;8.85;100.00;101239.50;1862015;76;26178;-78
2021/05/18 03:18:36;;;;;;;7.77;5.27;;;;;;;8.76;100.00;101237.47;1875525;76;26198;-77
2021/05/18 03:21:06;;;;;;;10.60;5.03;;;;;;;8.65;100.00;101234.60;1875316;76;26625;-78
2021/05/18 03:23:36;;;;;;;8.53;5.10;;;;;;;8.68;100.00;101240.19;1875464;76;26207;-78
2021/05/18 03:26:06;;;;;;;8.93;5.40;;;;;;;8.60;100.00;101242.05;1876307;76;26241;-77
2021/05/18 03:28:36;;;;;;;6.83;5.03;;;;;;;8.60;100.00;101237.89;1882044;76;26195;-77
2021/05/18 03:31:16;;;;;;;7.53;5.47;;;;;;;8.55;100.00;101235.08;1881843;76;26178;-78
2021/05/18 03:36:46;;;;;;;7.03;5.80;;;;;;;8.40;100.00;101231.59;1824859;78;33324;-78
2021/05/18 03:39:15;;;;;;;8.53;5.67;;;;;;;8.38;100.00;101230.20;1864279;77;26208;-78
2021/05/18 03:41:54;;;;;;;7.70;6.00;;;;;;;8.36;100.00;101235.14;1854289;77;26691;-78
2021/05/18 03:44:26;;;;;;;8.97;5.87;;;;;;;8.28;100.00;101237.81;1853596;77;26209;-78
2021/05/18 03:52:28;;;;;;;10.30;7.10;;;;;;;8.18;100.00;101234.38;1854333;77;26714;-77
2021/05/18 03:55:05;;;;;;;9.50;6.07;;;;;;;8.21;100.00;101235.23;1854312;77;26258;-78
2021/05/18 04:03:30;;;;;;;8.33;5.83;;;;;;;8.16;100.00;101253.73;1734660;81;26430;-77
2021/05/18 04:17:23;;;;;;;10.90;7.30;;;;;;;7.99;100.00;101269.57;1924826;74;26279;-78
2021/05/18 04:20:23;;;;;;;11.20;7.10;;;;;;;8.16;100.00;101261.48;1924936;74;26177;-78
2021/05/18 04:23:06;;;;;;;10.27;6.77;;;;;;;8.18;100.00;101263.97;1861990;76;26308;-75
2021/05/18 04:48:43;;;;;;;7.83;6.30;;;;;;;8.11;100.00;101287.70;1797148;80;26254;-75
2021/05/18 04:51:10;;;;;;;7.93;5.93;;;;;;;8.11;100.00;101295.17;1799089;78;26315;-75
2021/05/18 04:53:49;;;;;;;7.43;6.23;;;;;;;8.05;100.00;101297.02;1797195;78;26245;-74
2021/05/18 04:59:02;;;;;;;13.50;8.63;;;;;;;8.19;100.00;101307.16;1797120;80;26327;-74
2021/05/18 05:01:43;;;;;;;14.43;9.33;;;;;;;8.22;100.00;101302.48;1796590;80;26301;-74
2021/05/18 05:06:09;;;;;;;12.60;8.70;;;;;;;8.43;100.00;101303.61;1797882;77;26245;-74
2021/05/18 05:06:57;;;;;;;17.13;10.30;;;;;;;8.33;100.00;101302.94;1825918;77;26228;-74
2021/05/18 05:09:28;;;;;;;16.00;10.60;;;;;;;8.44;100.00;101303.33;1849776;77;26267;-75
2021/05/18 05:12:40;;;;;;;14.40;10.97;;;;;;;8.60;100.00;101299.62;1850303;77;26221;-74
2021/05/18 05:15:01;;;;;;;15.30;9.93;;;;;;;8.73;100.00;101307.25;1849768;77;26364;-74
2021/05/18 05:17:32;;;;;;;15.60;10.43;;;;;;;8.64;100.00;101300.77;1850118;77;26677;-73
2021/05/18 05:20:01;;;;;;;15.17;10.63;;;;;;;8.67;100.00;101306.34;1850006;77;26245;-75
2021/05/18 05:22:31;;;;;;;14.90;10.53;;;;;;;8.82;100.00;101312.57;1850083;77;26228;-74
2021/05/18 05:25:01;;;;;;;13.93;10.83;;;;;;;8.87;100.00;101316.23;1849992;77;26200;-73
2021/05/18 05:27:31;;;;;;;15.90;12.00;;;;;;;8.98;100.00;101306.94;1850085;77;26270;-75
2021/05/18 05:30:01;;;;;;;14.13;10.73;;;;;;;8.97;100.00;101319.11;1850086;77;26663;-74
2021/05/18 05:32:31;;;;;;;15.23;10.67;;;;;;;8.94;100.00;101320.19;1850082;77;26225;-74
2021/05/18 05:35:01;;;;;;;17.43;11.03;;;;;;;9.08;100.00;101315.86;1850072;77;26683;-74
2021/05/18 05:37:30;;;;;;;14.73;11.03;;;;;;;9.14;100.00;101320.36;1850093;77;26700;-74
2021/05/18 05:40:00;;;;;;;18.07;11.40;;;;;;;9.25;100.00;101335.13;1849969;77;26266;-74
2021/05/18 05:42:30;;;;;;;13.83;11.53;;;;;;;9.38;100.00;101331.91;1850026;77;26348;-74
2021/05/18 05:45:00;;;;;;;17.33;12.43;;;;;;;9.39;100.00;101330.27;1849979;77;26633;-74
2021/05/18 05:47:30;;;;;;;16.63;11.90;;;;;;;9.29;100.00;101332.95;1849967;77;26267;-75
2021/05/18 05:50:00;;;;;;;18.90;11.90;;;;;;;9.32;100.00;101335.76;1849984;77;26201;-74
2021/05/18 05:52:32;;;;;;;16.30;12.17;;;;;;;9.32;100.00;101331.60;1849749;77;26263;-75
2021/05/18 05:55:02;;;;;;;15.67;11.73;;;;;;;9.39;100.00;101329.43;1849727;77;26299;-74
2021/05/18 05:57:32;;;;;;;15.67;11.70;;;;;;;9.42;100.00;101333.88;1849838;77;26201;-74
2021/05/18 06:00:04;;;;;;;16.37;11.43;;;;;;;9.42;100.00;101334.44;1849999;77;26201;-75
2021/05/18 06:02:34;;;;;;;16.37;11.63;;;;;;;9.47;100.00;101333.09;1849937;77;26249;-75
2021/05/18 06:05:05;;;;;;;17.10;11.80;;;;;;;9.51;100.00;101336.45;1849965;77;26605;-75
2021/05/18 06:07:35;;;;;;;15.27;11.70;;;;;;;9.49;100.00;101341.45;1849939;77;26683;-74
2021/05/18 06:10:11;;;;;;;16.37;12.03;;;;;;;9.44;100.00;101341.95;1849938;77;26197;-75
2021/05/18 06:12:54;;;;;;;15.17;11.63;;;;;;;9.45;100.00;101340.31;1849841;77;26725;-74
2021/05/18 06:15:39;;;;;;;16.33;12.47;;;;;;;9.47;100.00;101349.73;1849834;77;26200;-73
2021/05/18 06:47:02;;;;;;;25.07;15.93;;;;;;;9.84;100.00;101367.18;1850036;77;26275;-75
2021/05/18 06:49:35;;;;;;;23.80;15.70;;;;;;;9.94;100.00;101375.58;1850219;77;26304;-73
2021/05/18 06:52:04;;;;;;;22.40;16.17;;;;;;;10.01;100.00;101370.61;1849786;77;26197;-74
2021/05/18 06:54:34;;;;;;;23.60;17.33;;;;;;;10.02;100.00;101363.97;1850025;77;26196;-73
2021/05/18 06:57:06;;;;;;;23.83;16.27;;;;;;;10.12;100.00;101368.74;1850045;77;26395;-73
2021/05/18 07:02:25;;;;;;;23.40;15.57;;;;;;;10.35;100.00;101370.28;1850251;77;26397;-73
2021/05/18 07:04:56;;;;;;;23.60;16.47;;;;;;;10.38;100.00;101374.73;1850052;77;26286;-75
2021/05/18 07:07:29;;;;;;;20.30;15.40;;;;;;;10.44;100.00;101373.63;1834516;77;26240;-75
2021/05/18 07:09:58;;;;;;;20.40;15.80;;;;;;;10.54;100.00;101374.78;1850391;77;26262;-75
2021/05/18 07:12:28;;;;;;;20.83;15.20;;;;;;;10.55;100.00;101373.69;1850225;77;26299;-76
2021/05/18 07:14:59;;;;;;;19.23;14.50;;;;;;;10.82;100.00;101365.45;1850054;77;26199;-76
2021/05/18 07:17:29;;;;;;;18.53;14.50;;;;;;;10.78;100.00;101362.91;1850104;77;26695;-73
2021/05/18 07:19:59;;;;;;;17.93;13.73;;;;;;;10.81;100.00;101365.16;1850359;77;26392;-78
2021/05/18 07:22:29;;;;;;;16.13;13.43;;;;;;;10.73;100.00;101366.25;1850195;77;26315;-77
2021/05/18 07:24:59;;;;;;;19.93;14.37;;;;;;;10.84;100.00;101363.77;1850095;77;26796;-79
2021/05/18 07:27:29;;;;;;;15.97;13.13;;;;;;;10.94;100.00;101362.41;1850167;77;26743;-77
2021/05/18 07:30:00;;;;;;;16.30;13.23;;;;;;;11.02;100.00;101354.91;1850205;77;26240;-77
2021/05/18 07:32:30;;;;;;;17.80;13.07;;;;;;;11.07;100.00;101363.81;1850220;77;26742;-79
2021/05/18 07:35:00;;;;;;;16.80;11.60;;;;;;;11.11;100.00;101356.59;1850238;77;26272;-80
2021/05/18 07:37:30;;;;;;;15.40;12.13;;;;;;;11.38;100.00;101355.20;1850082;77;26275;-74
2021/05/18 07:40:00;;;;;;;16.57;12.10;;;;;;;11.65;100.00;101360.48;1850182;77;26243;-78
2021/05/18 07:42:30;;;;;;;13.90;11.80;;;;;;;11.95;100.00;101354.05;1850157;77;26322;-80
2021/05/18 07:45:00;;;;;;;13.20;10.07;;;;;;;11.94;100.00;101354.35;1850081;77;26756;-80
2021/05/18 07:47:33;;;;;;;15.27;11.03;;;;;;;11.94;100.00;101350.18;1850117;77;26313;-80
2021/05/18 07:50:04;;;;;;;14.10;11.27;;;;;;;12.15;100.00;101354.57;1850180;77;26263;-81
2021/05/18 08:02:20;;;;;;;11.03;8.53;;;;;;;12.56;100.00;101349.66;1758392;81;26272;-79
2021/05/18 08:06:53;;;;;;;8.70;7.77;;;;;;;12.80;100.00;101357.59;1820113;79;26835;-80
2021/05/18 08:09:24;;;;;;;9.93;7.57;;;;;;;12.99;100.00;101362.78;1850208;77;26682;-80
2021/05/18 08:11:54;;;;;;;9.63;7.60;;;;;;;13.04;100.00;101359.13;1850354;77;26663;-80
2021/05/18 08:14:25;;;;;;;10.67;7.83;;;;;;;13.08;100.00;101361.61;1818219;79;26285;-80
2021/05/18 08:17:08;;;;;;;9.23;6.97;;;;;;;13.11;100.00;101359.11;1850327;77;26212;-79
2021/05/18 08:22:57;;;;;;;9.77;6.77;;;;;;;13.40;100.00;101361.11;1819651;79;26361;-79
2021/05/18 10:36:37;;;;;;;2.33;1.90;;;;;;;16.13;100.00;101318.14;1818088;79;26273;-79
2021/05/18 10:39:19;;;;;;;1.67;1.57;;;;;;;15.97;100.00;101319.56;1850368;77;26233;-80
2021/05/18 10:41:49;;;;;;;2.60;1.73;;;;;;;15.97;100.00;101319.56;1818097;79;26663;-79
2021/05/18 10:44:20;;;;;;;2.13;1.90;;;;;;;16.04;100.00;101313.84;1850224;77;26263;-79
2021/05/18 10:46:54;;;;;;;1.80;1.70;;;;;;;16.20;100.00;101317.98;1818196;79;26210;-79
2021/05/18 10:49:36;;;;;;;3.50;1.90;;;;;;;16.36;100.00;101315.11;1850274;77;26238;-79
2021/05/18 10:52:08;;;;;;;3.37;2.00;;;;;;;16.21;100.00;101316.84;1818178;79;26720;-79
2021/05/18 10:54:39;;;;;;;3.37;2.10;;;;;;;16.17;100.00;101314.38;1850341;77;26725;-79
2021/05/18 10:57:17;;;;;;;3.00;2.00;;;;;;;16.12;100.00;101306.67;1818204;79;26294;-78
2021/05/18 10:59:56;;;;;;;4.63;2.00;;;;;;;16.36;100.00;101303.06;1818095;79;26665;-79
2021/05/18 11:02:29;;;;;;;2.80;1.90;;;;;;;16.45;100.00;101301.19;1850266;77;26317;-79
2021/05/18 11:05:02;;;;;;;3.67;1.73;;;;;;;16.81;100.00;101304.87;1818183;79;26631;-80
2021/05/18 11:07:38;;;;;;;2.27;1.70;;;;;;;16.71;100.00;101303.72;1850247;77;26240;-80
2021/05/18 11:10:13;;;;;;;1.70;1.60;;;;;;;16.51;100.00;101305.55;1818259;79;26631;-79
2021/05/18 11:12:43;;;;;;;1.77;1.23;;;;;;;16.73;100.00;101298.61;1850308;77;26226;-80
2021/05/18 11:15:16;;;;;;;1.93;1.73;;;;;;;16.86;100.00;101304.52;1818158;79;26268;-80
2021/05/18 11:17:47;;;;;;;1.97;1.60;;;;;;;17.12;100.00;101295.16;1850242;77;26277;-80
2021/05/18 11:20:25;;;;;;;2.30;1.67;;;;;;;17.15;100.00;101297.34;1818199;79;26653;-80
2021/05/18 11:23:20;;;;;;;1.40;1.30;;;;;;;17.01;100.00;101290.11;1850271;77;26278;-78
2021/05/18 11:25:54;;;;;;;2.57;1.60;;;;;;;16.86;100.00;101295.50;1818092;77;26281;-81
2021/05/18 11:28:29;;;;;;;1.50;1.40;;;;;;;16.75;100.00;101299.14;1850385;77;24267;-76
2021/05/18 11:31:01;;;;;;;3.07;1.60;;;;;;;16.86;100.00;101289.89;1818093;79;26628;-78
2021/05/18 11:33:35;;;;;;;3.77;1.30;;;;;;;16.94;100.00;101287.77;1850221;77;26211;-78
2021/05/18 11:36:09;;;;;;;2.00;1.80;;;;;;;16.78;100.00;101282.23;1818162;79;26673;-78
2021/05/18 11:38:41;;;;;;;2.03;1.40;;;;;;;16.78;100.00;101283.64;1850282;77;26218;-79
2021/05/18 11:41:11;;;;;;;2.50;1.87;;;;;;;16.81;100.00;101285.23;1818300;79;26276;-80
2021/05/18 11:43:40;;;;;;;1.37;1.27;;;;;;;16.80;100.00;101279.39;1850271;77;26211;-79
2021/05/18 11:46:13;;;;;;;2.43;1.50;;;;;;;16.92;100.00;101280.22;1818117;79;26231;-79
2021/05/18 11:48:45;;;;;;;2.47;1.23;;;;;;;16.99;100.00;101282.00;1850244;77;26651;-79
2021/05/18 11:51:16;;;;;;;2.60;1.50;;;;;;;17.05;100.00;101272.89;1817177;78;26657;-79
2021/05/18 11:53:48;;;;;;;1.40;1.20;;;;;;;17.37;100.00;101276.83;1850276;77;26207;-80
2021/05/18 11:56:21;;;;;;;2.73;1.67;;;;;;;17.50;100.00;101275.12;1818178;79;26309;-79
2021/05/18 11:59:00;;;;;;;1.33;1.23;;;;;;;17.55;100.00;101279.17;1850293;77;26205;-79
2021/05/18 12:01:30;;;;;;;2.30;1.10;;;;;;;17.12;100.00;101279.72;1818136;79;26292;-79
2021/05/18 12:04:08;;;;;;;1.53;1.20;;;;;;;16.86;100.00;101283.48;1850272;77;26215;-79
2021/05/18 12:06:42;;;;;;;3.63;2.50;;;;;;;16.67;100.00;101291.47;1802981;79;26249;-78
2021/05/18 12:09:14;;;;;;;2.23;2.03;;;;;;;16.51;100.00;101298.55;1850368;77;26324;-78
2021/05/18 12:11:43;;;;;;;3.23;1.53;;;;;;;16.45;100.00;101306.80;1799967;79;26274;-77
2021/05/18 12:14:13;;;;;;;2.23;1.47;;;;;;;16.23;100.00;101315.95;1816864;79;26635;-79
2021/05/18 12:16:45;;;;;;;2.60;1.43;;;;;;;15.60;100.00;101332.59;1850115;77;26267;-74
2021/05/18 12:19:16;;;;;;;2.03;1.83;;;;;;;15.33;100.00;101333.30;1817933;79;26311;-73
2021/05/18 12:21:49;;;;;;;2.20;1.30;;;;;;;14.96;100.00;101346.77;1850016;77;26612;-73
2021/05/18 12:24:22;;;;;;;1.20;1.00;;;;;;;14.53;100.00;101354.91;1818124;79;26354;-73
2021/05/18 12:26:56;;;;;;;1.27;1.17;;;;;;;14.19;100.00;101360.61;1850055;76;26319;-74
2021/05/18 12:29:37;;;;;;;3.33;1.37;;;;;;;14.09;100.00;101365.74;1818151;79;26211;-73
2021/05/18 12:32:22;;;;;;;1.57;1.30;;;;;;;14.02;100.00;101364.44;1849995;77;26717;-73
2021/05/18 12:34:54;;;;;;;1.50;1.40;;;;;;;13.98;100.00;101346.05;1818187;79;26626;-74
2021/05/18 12:37:34;;;;;;;2.53;1.30;;;;;;;13.86;100.00;101351.77;1850110;77;26248;-74
2021/05/18 12:40:09;;;;;;;1.73;1.00;;;;;;;13.93;100.00;101348.89;1817926;79;26336;-73
2021/05/18 12:42:41;;;;;;;1.57;1.30;;;;;;;14.05;100.00;101350.70;1849990;77;26617;-73
2021/05/18 12:45:14;;;;;;;1.50;1.00;;;;;;;13.97;100.00;101347.17;1817894;79;26619;-73
2021/05/18 12:47:45;;;;;;;3.20;1.10;;;;;;;14.11;100.00;101340.31;1849899;77;26422;-73
2021/05/18 12:50:18;;;;;;;2.07;1.03;;;;;;;14.39;100.00;101332.45;1817985;79;26646;-73
2021/05/18 12:52:52;;;;;;;1.67;0.87;;;;;;;14.85;100.00;101329.84;1850165;77;26245;-74
2021/05/18 12:55:25;;;;;;;2.53;0.83;;;;;;;15.00;100.00;101331.59;1817926;79;26286;-73
2021/05/18 12:57:58;;;;;;;1.47;1.07;;;;;;;15.25;100.00;101328.39;1849969;77;26624;-73
2021/05/18 13:00:35;;;;;;;1.30;0.50;;;;;;;15.44;100.00;101326.41;1817913;79;26671;-73
2021/05/18 13:03:14;;;;;;;0.93;0.70;;;;;;;15.49;100.00;101322.66;1850015;77;26652;-74
2021/05/18 13:05:46;;;;;;;0.83;0.53;;;;;;;15.51;100.00;101318.19;1817908;79;26251;-73
2021/05/18 13:08:18;;;;;;;1.20;0.80;;;;;;;15.63;100.00;101311.53;1849979;77;26240;-73
2021/05/18 13:10:55;;;;;;;1.47;0.70;;;;;;;15.70;100.00;101317.58;1818001;79;26633;-74
2021/05/18 13:13:26;;;;;;;0.70;0.60;;;;;;;15.72;100.00;101316.69;1850343;77;26846;-74
2021/05/18 13:16:11;;;;;;;0.87;0.60;;;;;;;15.76;100.00;101319.13;1819695;79;26280;-74
2021/05/18 13:18:43;;;;;;;1.00;0.80;;;;;;;15.93;100.00;101308.16;1819881;79;26312;-74
2021/05/18 13:21:22;;;;;;;0.77;0.70;;;;;;;15.98;100.00;101312.26;1849030;77;26749;-74
2021/05/18 13:26:44;;;;;;;1.20;0.83;;;;;;;16.56;100.00;101311.03;1811516;77;26278;-73
2021/05/18 13:29:18;;;;;;;1.50;0.60;;;;;;;16.67;100.00;101315.31;1819721;79;26207;-73
2021/05/18 13:31:50;;;;;;;0.93;0.63;;;;;;;16.60;100.00;101308.48;1819879;79;26231;-73
2021/05/18 13:34:21;;;;;;;0.97;0.70;;;;;;;16.75;100.00;101308.13;1819663;79;26219;-73
2021/05/18 13:36:52;;;;;;;3.63;0.90;;;;;;;16.89;100.00;101310.90;1801449;79;26633;-74
2021/05/18 13:39:23;;;;;;;0.77;0.73;;;;;;;16.81;100.00;101309.68;1819624;79;26213;-74
2021/05/18 13:41:54;;;;;;;1.37;0.70;;;;;;;16.69;100.00;101313.01;1819685;79;26205;-73
2021/05/18 13:44:25;;;;;;;1.53;0.70;;;;;;;16.69;100.00;101315.81;1819711;79;26366;-73
2021/05/18 13:46:56;;;;;;;2.73;0.77;;;;;;;16.76;100.00;101316.23;1819608;79;26349;-73
2021/05/18 13:49:28;;;;;;;3.07;0.80;;;;;;;16.78;100.00;101308.89;1819858;79;26810;-72
2021/05/18 13:51:58;;;;;;;1.73;0.70;;;;;;;16.83;100.00;101324.20;1819473;79;26287;-73
2021/05/18 13:54:30;;;;;;;2.57;0.77;;;;;;;16.70;100.00;101313.84;1819592;79;26241;-73
2021/05/18 13:57:01;;;;;;;0.70;0.70;;;;;;;16.47;100.00;101313.50;1819693;79;26225;-73
2021/05/18 13:59:31;;;;;;;2.17;1.00;;;;;;;16.23;100.00;101311.74;1849940;77;26202;-73
2021/05/18 14:02:01;;;;;;;1.20;0.90;;;;;;;16.23;100.00;101311.74;1846651;77;26191;-73
2021/05/18 14:04:33;;;;;;;1.40;0.90;;;;;;;16.05;100.00;101311.27;1818021;79;26214;-73
2021/05/18 14:07:22;;;;;;;1.47;0.97;;;;;;;16.02;100.00;101310.50;1849891;77;26238;-74
2021/05/18 14:09:47;;;;;;;2.50;0.90;;;;;;;15.98;100.00;101306.66;1816455;78;26278;-72
2021/05/18 14:12:17;;;;;;;1.73;0.80;;;;;;;15.79;100.00;101323.53;1849967;77;26276;-73
2021/05/18 14:14:47;;;;;;;1.23;1.07;;;;;;;15.37;100.00;101332.94;1817876;79;26214;-76
2021/05/18 14:17:16;;;;;;;1.33;1.23;;;;;;;15.00;100.00;101342.78;1850024;77;26651;-76
2021/05/18 14:19:46;;;;;;;2.10;0.93;;;;;;;14.45;100.00;101353.62;1817884;79;26769;-77
2021/05/18 14:22:16;;;;;;;1.50;0.90;;;;;;;14.23;100.00;101381.80;1850040;77;26332;-76
2021/05/18 14:24:53;;;;;;;2.57;1.00;;;;;;;13.98;100.00;101386.55;1817969;79;26753;-75
2021/05/18 14:27:19;;;;;;;2.73;1.30;;;;;;;13.74;100.00;101389.84;1817698;77;26718;-76
2021/05/18 14:29:49;;;;;;;2.73;1.10;;;;;;;13.71;100.00;101397.97;1850047;77;26694;-76
2021/05/18 14:32:19;;;;;;;1.87;1.23;;;;;;;13.76;100.00;101401.56;1817960;79;26294;-76
2021/05/18 14:34:51;;;;;;;1.30;1.20;;;;;;;13.90;100.00;101402.55;1850087;77;26201;-76
2021/05/18 14:37:23;;;;;;;1.87;0.90;;;;;;;14.26;100.00;101400.77;1818158;79;26746;-76
2021/05/18 14:39:59;;;;;;;2.83;1.17;;;;;;;14.39;100.00;101397.29;1850136;77;26770;-76
2021/05/18 14:42:52;;;;;;;1.97;1.07;;;;;;;14.50;100.00;101401.65;1819625;79;26281;-76
2021/05/18 14:45:23;;;;;;;1.17;1.07;;;;;;;14.45;100.00;101399.75;1819635;79;26277;-75
2021/05/18 14:48:12;;;;;;;1.27;0.70;;;;;;;14.67;100.00;101397.80;1819618;79;26223;-75
2021/05/18 14:53:48;;;;;;;1.27;0.60;;;;;;;14.58;100.00;101394.00;1819780;79;26727;-76
2021/05/18 14:56:15;;;;;;;1.33;0.63;;;;;;;14.67;100.00;101388.58;1818840;78;26675;-75
2021/05/18 14:58:45;;;;;;;1.90;0.87;;;;;;;14.89;100.00;101389.64;1819731;79;26322;-75
2021/05/18 15:01:15;;;;;;;1.73;1.00;;;;;;;14.96;100.00;101387.89;1819564;79;26728;-75
2021/05/18 15:03:45;;;;;;;1.70;0.90;;;;;;;15.28;100.00;101380.95;1819718;79;26211;-75
2021/05/18 15:06:15;;;;;;;1.97;0.63;;;;;;;15.13;100.00;101384.56;1819543;79;26215;-76
2021/05/18 15:08:45;;;;;;;1.43;0.53;;;;;;;14.98;100.00;101380.01;1819674;79;26666;-75
2021/05/18 15:11:15;;;;;;;1.30;0.90;;;;;;;14.87;100.00;101379.34;1819699;79;26240;-74
2021/05/18 15:13:46;;;;;;;1.77;0.70;;;;;;;14.74;100.00;101372.25;1819770;79;26734;-76
2021/05/18 15:16:15;;;;;;;1.30;0.90;;;;;;;15.18;100.00;101376.09;1819811;79;26211;-77
2021/05/18 15:18:48;;;;;;;0.70;0.70;;;;;;;15.31;100.00;101370.57;1819692;79;26627;-77
2021/05/18 15:21:17;;;;;;;1.40;0.60;;;;;;;15.39;100.00;101359.24;1819868;79;26259;-77
2021/05/18 15:23:48;;;;;;;2.07;0.93;;;;;;;15.41;100.00;101359.19;1819801;79;26682;-80
2021/05/18 15:26:18;;;;;;;1.40;0.90;;;;;;;15.36;100.00;101361.27;1819864;79;26215;-75
2021/05/18 15:28:48;;;;;;;2.77;0.70;;;;;;;15.38;100.00;101368.77;1819771;77;26364;-75
2021/05/18 15:31:18;;;;;;;1.70;0.90;;;;;;;15.33;100.00;101363.25;1819817;79;26215;-75
2021/05/18 15:33:47;;;;;;;1.30;0.67;;;;;;;15.21;100.00;101357.28;1819735;79;26725;-75
2021/05/18 15:36:18;;;;;;;2.63;1.00;;;;;;;15.13;100.00;101363.02;1819731;79;26207;-75
2021/05/18 15:38:48;;;;;;;2.43;0.90;;;;;;;14.86;100.00;101367.88;1819747;79;26209;-75
2021/05/18 15:41:25;;;;;;;1.70;0.70;;;;;;;14.79;100.00;101368.83;1819744;79;26214;-77
2021/05/18 15:43:55;;;;;;;2.37;1.00;;;;;;;14.83;100.00;101370.45;1819878;79;26231;-76
2021/05/18 15:46:25;;;;;;;0.80;0.80;;;;;;;14.96;100.00;101362.15;1819748;79;26675;-76